createdAt,value
2022-10-22T00:00:08.316Z,95424.69
2022-10-22T00:01:11.815Z,95422.69
2022-10-22T00:02:19.806Z,95428.19
2022-10-22T00:03:23.430Z,95428.19
2022-10-22T00:04:25.481Z,95428.19
2022-10-22T00:05:28.563Z,95428.94
2022-10-22T00:06:30.548Z,95438.44
2022-10-22T00:07:33.548Z,95432.16
2022-10-22T00:08:35.475Z,95428.19
2022-10-22T00:09:38.259Z,95441.94
2022-10-22T00:10:40.543Z,95438.44
2022-10-22T00:11:44.480Z,95438.44
2022-10-22T00:12:46.569Z,95443.13
2022-10-22T00:13:50.230Z,95445.88
2022-10-22T00:14:52.245Z,95441.19
2022-10-22T00:15:55.053Z,95449.41
2022-10-22T00:16:56.900Z,95434.88
2022-10-22T00:18:01.144Z,95442.38
2022-10-22T00:19:03.050Z,95445.88
2022-10-22T00:20:06.934Z,95446.66
2022-10-22T00:21:09.533Z,95448.63
2022-10-22T00:22:13.058Z,95452.16
2022-10-22T00:23:14.836Z,95443.47
2022-10-22T00:24:18.278Z,95451.69
2022-10-22T00:25:20.188Z,95448.94
2022-10-22T00:26:23.478Z,95447.44
2022-10-22T00:27:25.419Z,95458.44
2022-10-22T00:28:28.354Z,95455.69
2022-10-22T00:29:30.253Z,95458.44
2022-10-22T00:30:33.079Z,95461.19
2022-10-22T00:31:35.055Z,95474.16
2022-10-22T00:32:38.065Z,95472.16
2022-10-22T00:33:42.615Z,95480.41
2022-10-22T00:34:45.759Z,95484.69
2022-10-22T00:35:47.560Z,95484.69
2022-10-22T00:36:51.970Z,95492.16
2022-10-22T00:37:53.891Z,95493.72
2022-10-22T00:38:56.688Z,95501.16
2022-10-22T00:39:58.518Z,95506.66
2022-10-22T00:42:12.565Z,95514.59
2022-10-22T00:43:18.016Z,95513.06
2022-10-22T00:44:56.972Z,95509.56
2022-10-22T00:45:59.741Z,95512.31
2022-10-22T00:47:01.596Z,95510.00
2022-10-22T00:48:08.153Z,95503.75
2022-10-22T00:49:11.397Z,95511.22
2022-10-22T00:50:18.562Z,95509.66
2022-10-22T00:51:25.621Z,95505.06
2022-10-22T00:52:28.491Z,95506.59
2022-10-22T00:53:36.095Z,95496.06
2022-10-22T00:54:39.391Z,95502.34
2022-10-22T00:55:44.839Z,95492.09
2022-10-22T00:56:46.655Z,95492.09
2022-10-22T00:57:50.029Z,95487.38
2022-10-22T00:58:56.492Z,95483.41
2022-10-22T00:59:59.657Z,95472.44
2022-10-22T01:01:02.601Z,95464.94
2022-10-22T01:02:05.731Z,95472.44
2022-10-22T01:03:07.811Z,95465.69
2022-10-22T01:04:12.581Z,95467.25
2022-10-22T01:05:14.404Z,95465.25
2022-10-22T01:06:26.200Z,95471.53
2022-10-22T01:07:28.485Z,95469.53
2022-10-22T01:08:40.895Z,95468.00
2022-10-22T01:09:50.401Z,95466.03
2022-10-22T01:11:06.974Z,95466.03
2022-10-22T01:12:15.430Z,95456.59
2022-10-22T01:13:31.424Z,95456.59
2022-10-22T01:14:38.900Z,95452.59
2022-10-22T01:15:48.161Z,95458.88
2022-10-22T01:16:56.920Z,95454.13
2022-10-22T01:18:02.743Z,95455.69
2022-10-22T01:19:23.914Z,95454.13
2022-10-22T01:20:54.705Z,95461.19
2022-10-22T01:22:05.003Z,95461.94
2022-10-22T01:23:21.354Z,95468.19
2022-10-22T01:24:43.026Z,95472.16
2022-10-22T01:25:51.163Z,95457.97
2022-10-22T01:27:17.442Z,95467.44
2022-10-22T01:28:28.721Z,95463.91
2022-10-22T01:29:38.452Z,95468.19
2022-10-22T01:30:45.501Z,95472.16
2022-10-22T01:31:54.428Z,95472.94
2022-10-22T01:33:02.032Z,95480.41
2022-10-22T01:34:04.873Z,95490.19
2022-10-22T01:35:10.444Z,95495.66
2022-10-22T01:36:13.036Z,95490.97
2022-10-22T01:37:18.124Z,95484.69
2022-10-22T01:38:24.603Z,95488.66
2022-10-22T01:39:29.727Z,95488.97
2022-10-22T01:40:33.102Z,95479.19
2022-10-22T01:41:36.709Z,95483.16
2022-10-22T01:42:38.510Z,95473.38
2022-10-22T01:43:41.273Z,95477.66
2022-10-22T01:44:44.574Z,95476.13
2022-10-22T01:45:49.895Z,95467.09
2022-10-22T01:47:00.983Z,95469.84
2022-10-22T01:48:18.005Z,95475.34
2022-10-22T01:49:27.645Z,95471.09
2022-10-22T01:50:43.591Z,95469.09
2022-10-22T01:52:00.423Z,95467.56
2022-10-22T01:53:15.050Z,95466.78
2022-10-22T01:54:27.149Z,95474.59
2022-10-22T01:55:33.320Z,95466.03
2022-10-22T01:56:56.276Z,95472.28
2022-10-22T01:58:12.870Z,95478.56
2022-10-22T01:59:23.451Z,95480.09
2022-10-22T02:00:26.772Z,95480.09
2022-10-22T02:01:36.557Z,95484.06
2022-10-22T02:02:43.813Z,95484.06
2022-10-22T02:03:53.740Z,95495.06
2022-10-22T02:04:59.027Z,95495.81
2022-10-22T02:06:05.935Z,95495.06
2022-10-22T02:07:11.519Z,95491.53
2022-10-22T02:08:18.459Z,95493.50
2022-10-22T02:09:22.729Z,95495.81
2022-10-22T02:10:26.268Z,95496.56
2022-10-22T02:11:28.678Z,95495.06
2022-10-22T02:12:33.443Z,95498.56
2022-10-22T02:13:40.418Z,95495.06
2022-10-22T02:14:45.253Z,95500.56
2022-10-22T02:15:51.689Z,95506.03
2022-10-22T02:16:55.253Z,95506.03
2022-10-22T02:18:00.149Z,95502.06
2022-10-22T02:19:08.436Z,95503.31
2022-10-22T02:20:16.317Z,95509.56
2022-10-22T02:21:19.267Z,95512.31
2022-10-22T02:22:21.469Z,95518.56
2022-10-22T02:23:24.524Z,95516.25
2022-10-22T02:24:26.531Z,95519.78
2022-10-22T02:25:33.193Z,95521.75
2022-10-22T02:26:40.092Z,95528.03
2022-10-22T02:27:46.749Z,95522.53
2022-10-22T02:28:56.663Z,95528.03
2022-10-22T02:30:04.352Z,95536.28
2022-10-22T02:31:13.891Z,95531.97
2022-10-22T02:32:20.934Z,95536.72
2022-10-22T02:33:28.209Z,95544.53
2022-10-22T02:34:33.257Z,95537.47
2022-10-22T02:35:36.292Z,95535.94
2022-10-22T02:36:40.263Z,95531.22
2022-10-22T02:37:43.973Z,95537.47
2022-10-22T02:38:47.591Z,95533.63
2022-10-22T02:39:52.121Z,95535.94
2022-10-22T02:40:54.000Z,95536.38
2022-10-22T02:41:59.013Z,95535.94
2022-10-22T02:43:03.712Z,95539.91
2022-10-22T02:44:10.490Z,95535.94
2022-10-22T02:45:12.374Z,95536.72
2022-10-22T02:46:16.499Z,95539.47
2022-10-22T02:47:18.500Z,95542.22
2022-10-22T02:49:28.351Z,95536.28
2022-10-22T02:50:31.228Z,95526.47
2022-10-22T02:51:33.174Z,95536.72
2022-10-22T02:52:35.937Z,95531.66
2022-10-22T02:53:37.755Z,95545.41
2022-10-22T02:54:40.712Z,95545.41
2022-10-22T02:55:42.477Z,95542.66
2022-10-22T02:56:45.403Z,95539.13
2022-10-22T02:57:47.193Z,95542.31
2022-10-22T02:58:50.030Z,95547.81
2022-10-22T02:59:51.931Z,95547.81
2022-10-22T03:00:54.858Z,95543.88
2022-10-22T03:01:58.381Z,95545.06
2022-10-22T03:03:01.143Z,95542.31
2022-10-22T03:04:04.068Z,95536.06
2022-10-22T03:05:07.554Z,95538.06
2022-10-22T03:06:09.321Z,95535.31
2022-10-22T03:07:12.099Z,95542.00
2022-10-22T03:08:13.898Z,95548.72
2022-10-22T03:09:20.150Z,95541.69
2022-10-22T03:10:24.591Z,95540.91
2022-10-22T03:11:27.386Z,95552.69
2022-10-22T03:12:29.150Z,95545.97
2022-10-22T03:13:31.927Z,95553.44
2022-10-22T03:14:33.685Z,95555.44
2022-10-22T03:15:36.476Z,95555.44
2022-10-22T03:16:38.384Z,95561.69
2022-10-22T03:17:42.752Z,95554.22
2022-10-22T03:18:44.945Z,95558.94
2022-10-22T03:19:47.697Z,95559.72
2022-10-22T03:20:49.511Z,95563.69
2022-10-22T03:21:56.365Z,95565.22
2022-10-22T03:22:58.563Z,95565.22
2022-10-22T03:24:04.364Z,95569.19
2022-10-22T03:25:10.613Z,95560.16
2022-10-22T03:26:15.386Z,95556.63
2022-10-22T03:27:20.382Z,95560.59
2022-10-22T03:28:23.207Z,95559.06
2022-10-22T03:29:26.957Z,95561.81
2022-10-22T03:30:30.015Z,95565.31
2022-10-22T03:31:31.884Z,95574.78
2022-10-22T03:32:34.674Z,95578.75
2022-10-22T03:33:37.855Z,95594.00
2022-10-22T03:34:40.592Z,95590.50
2022-10-22T03:35:46.036Z,95598.75
2022-10-22T03:36:49.706Z,95600.72
2022-10-22T03:37:51.782Z,95601.16
2022-10-22T03:38:55.309Z,95600.72
2022-10-22T03:39:57.791Z,95599.19
2022-10-22T03:41:00.561Z,95595.66
2022-10-22T03:42:03.299Z,95603.91
2022-10-22T03:43:06.240Z,95598.41
2022-10-22T03:44:08.386Z,95605.09
2022-10-22T03:45:12.204Z,95602.38
2022-10-22T03:46:13.982Z,95599.63
2022-10-22T03:47:16.814Z,95605.09
2022-10-22T03:48:18.620Z,95613.34
2022-10-22T03:49:22.883Z,95608.66
2022-10-22T03:50:24.608Z,95613.34
2022-10-22T03:51:28.076Z,95610.59
2022-10-22T03:52:36.043Z,95607.84
2022-10-22T03:53:38.870Z,95607.09
2022-10-22T03:54:42.118Z,95602.81
2022-10-22T03:55:45.015Z,95604.03
2022-10-22T03:56:53.494Z,95604.81
2022-10-22T03:57:56.367Z,95598.53
2022-10-22T03:58:59.092Z,95604.81
2022-10-22T04:00:02.040Z,95604.81
2022-10-22T04:01:07.533Z,95604.03
2022-10-22T04:02:10.873Z,95597.00
2022-10-22T04:03:12.816Z,95592.28
2022-10-22T04:04:15.669Z,95597.44
2022-10-22T04:05:19.033Z,95595.91
2022-10-22T04:06:21.877Z,95599.84
2022-10-22T04:07:23.671Z,95604.16
2022-10-22T04:08:26.407Z,95607.34
2022-10-22T04:09:30.617Z,95601.84
2022-10-22T04:10:33.373Z,95596.34
2022-10-22T04:11:35.334Z,95595.59
2022-10-22T04:12:38.094Z,95600.31
2022-10-22T04:13:39.892Z,95595.59
2022-10-22T04:14:42.695Z,95591.28
2022-10-22T04:16:52.354Z,95583.03
2022-10-22T04:17:54.440Z,95588.53
2022-10-22T04:18:57.230Z,95591.28
2022-10-22T04:19:59.055Z,95584.59
2022-10-22T04:21:03.186Z,95589.34
2022-10-22T04:22:05.061Z,95589.34
2022-10-22T04:23:07.828Z,95592.06
2022-10-22T04:24:09.853Z,95585.78
2022-10-22T04:25:12.604Z,95589.34
2022-10-22T04:26:14.994Z,95587.78
2022-10-22T04:27:17.851Z,95587.00
2022-10-22T04:28:19.598Z,95580.00
2022-10-22T04:29:22.392Z,95582.28
2022-10-22T04:30:25.183Z,95585.78
2022-10-22T04:31:27.030Z,95585.03
2022-10-22T04:32:30.125Z,95582.75
2022-10-22T04:33:31.943Z,95593.72
2022-10-22T04:34:34.679Z,95593.72
2022-10-22T04:35:38.929Z,95596.47
2022-10-22T04:36:43.045Z,95594.94
2022-10-22T04:37:44.942Z,95593.41
2022-10-22T04:38:52.864Z,95594.16
2022-10-22T04:39:57.303Z,95587.91
2022-10-22T04:41:09.653Z,95585.16
2022-10-22T04:42:12.614Z,95587.91
2022-10-22T04:43:14.473Z,95580.84
2022-10-22T04:44:17.683Z,95587.09
2022-10-22T04:45:20.283Z,95587.91
2022-10-22T04:46:23.663Z,95591.81
2022-10-22T04:47:25.412Z,95587.91
2022-10-22T04:48:28.132Z,95586.34
2022-10-22T04:49:30.873Z,95589.84
2022-10-22T04:50:32.691Z,95591.81
2022-10-22T04:51:35.446Z,95597.31
2022-10-22T04:52:38.625Z,95591.06
2022-10-22T04:53:41.516Z,95584.81
2022-10-22T04:54:43.303Z,95590.31
2022-10-22T04:55:46.326Z,95586.34
2022-10-22T04:56:48.188Z,95587.56
2022-10-22T04:57:50.941Z,95584.81
2022-10-22T04:58:54.953Z,95579.31
2022-10-22T04:59:57.815Z,95575.03
2022-10-22T05:00:59.617Z,95577.00
2022-10-22T05:02:02.412Z,95571.50
2022-10-22T05:03:04.329Z,95579.75
2022-10-22T05:04:09.122Z,95572.72
2022-10-22T05:05:11.908Z,95574.69
2022-10-22T05:06:15.588Z,95582.94
2022-10-22T05:07:17.637Z,95573.94
2022-10-22T05:08:21.853Z,95569.19
2022-10-22T05:09:23.651Z,95577.44
2022-10-22T05:10:26.421Z,95573.16
2022-10-22T05:11:30.043Z,95567.66
2022-10-22T05:12:32.964Z,95561.84
2022-10-22T05:13:34.799Z,95557.59
2022-10-22T05:14:41.397Z,95563.06
2022-10-22T05:15:45.849Z,95555.28
2022-10-22T05:16:49.393Z,95561.53
2022-10-22T05:17:51.401Z,95560.75
2022-10-22T05:18:54.404Z,95562.00
2022-10-22T05:19:56.216Z,95574.94
2022-10-22T05:20:59.000Z,95565.16
2022-10-22T05:22:02.866Z,95567.91
2022-10-22T05:23:05.681Z,95572.66
2022-10-22T05:24:09.272Z,95579.66
2022-10-22T05:25:12.665Z,95587.13
2022-10-22T05:26:17.408Z,95588.34
2022-10-22T05:27:20.239Z,95585.59
2022-10-22T05:28:22.055Z,95583.63
2022-10-22T05:29:25.964Z,95587.56
2022-10-22T05:30:27.762Z,95589.88
2022-10-22T05:31:30.483Z,95590.66
2022-10-22T05:32:32.237Z,95592.63
2022-10-22T05:33:36.046Z,95591.41
2022-10-22T05:34:38.112Z,95603.94
2022-10-22T05:35:45.582Z,95603.19
2022-10-22T05:36:48.456Z,95603.94
2022-10-22T05:37:51.320Z,95603.94
2022-10-22T05:38:53.947Z,95600.44
2022-10-22T05:40:06.779Z,95597.69
2022-10-22T05:41:23.517Z,95588.66
2022-10-22T05:42:26.253Z,95585.91
2022-10-22T05:43:28.134Z,95592.97
2022-10-22T05:44:31.012Z,95589.88
2022-10-22T05:45:36.623Z,95592.63
2022-10-22T05:46:39.536Z,95582.41
2022-10-22T05:47:41.347Z,95592.63
2022-10-22T05:48:44.529Z,95586.69
2022-10-22T05:49:46.394Z,95594.16
2022-10-22T05:50:50.790Z,95602.38
2022-10-22T05:51:52.699Z,95605.13
2022-10-22T05:52:55.476Z,95601.63
2022-10-22T05:53:58.919Z,95599.66
2022-10-22T05:55:03.095Z,95602.38
2022-10-22T05:56:07.639Z,95609.44
2022-10-22T05:57:10.511Z,95603.94
2022-10-22T05:58:13.539Z,95597.69
2022-10-22T05:59:16.422Z,95598.44
2022-10-22T06:00:18.406Z,95592.97
2022-10-22T06:01:23.103Z,95592.97
2022-10-22T06:02:24.987Z,95592.97
2022-10-22T06:03:28.845Z,95588.22
2022-10-22T06:04:30.694Z,95596.47
2022-10-22T06:05:36.027Z,95595.69
2022-10-22T06:06:41.598Z,95608.69
2022-10-22T06:07:43.644Z,95606.34
2022-10-22T06:08:49.036Z,95598.88
2022-10-22T06:09:51.151Z,95601.19
2022-10-22T06:10:55.497Z,95603.19
2022-10-22T06:11:57.993Z,95603.19
2022-10-22T06:13:01.558Z,95598.44
2022-10-22T06:14:03.961Z,95592.19
2022-10-22T06:15:08.224Z,95603.94
2022-10-22T06:16:10.034Z,95609.44
2022-10-22T06:17:13.154Z,95601.63
2022-10-22T06:18:14.972Z,95607.88
2022-10-22T06:19:19.648Z,95610.63
2022-10-22T06:20:21.531Z,95614.16
2022-10-22T06:21:24.293Z,95614.16
2022-10-22T06:22:26.101Z,95621.63
2022-10-22T06:23:28.924Z,95616.13
2022-10-22T06:24:31.148Z,95620.09
2022-10-22T06:25:33.925Z,95620.84
2022-10-22T06:26:37.249Z,95620.09
2022-10-22T06:27:40.105Z,95620.09
2022-10-22T06:28:41.878Z,95621.63
2022-10-22T06:29:44.722Z,95631.84
2022-10-22T06:30:46.736Z,95630.66
2022-10-22T06:31:49.754Z,95624.38
2022-10-22T06:32:51.532Z,95624.38
2022-10-22T06:33:54.615Z,95629.09
2022-10-22T06:34:56.628Z,95622.84
2022-10-22T06:36:07.666Z,95618.09
2022-10-22T06:37:10.099Z,95618.88
2022-10-22T06:38:12.985Z,95611.84
2022-10-22T06:39:17.164Z,95614.59
2022-10-22T06:40:20.020Z,95612.63
2022-10-22T06:41:24.421Z,95614.59
2022-10-22T06:42:31.421Z,95611.09
2022-10-22T06:43:33.475Z,95618.09
2022-10-22T06:44:36.694Z,95622.06
2022-10-22T06:45:38.673Z,95629.53
2022-10-22T06:46:43.533Z,95624.81
2022-10-22T06:47:47.658Z,95626.78
2022-10-22T06:48:51.449Z,95626.78
2022-10-22T06:49:53.337Z,95631.06
2022-10-22T06:50:56.595Z,95639.31
2022-10-22T06:51:58.532Z,95644.81
2022-10-22T06:53:01.346Z,95644.81
2022-10-22T06:54:03.348Z,95641.31
2022-10-22T06:55:06.947Z,95637.75
2022-10-22T06:56:11.013Z,95654.25
2022-10-22T06:57:12.828Z,95657.00
2022-10-22T06:58:17.009Z,95654.25
2022-10-22T06:59:19.913Z,95660.53
2022-10-22T07:00:22.290Z,95665.22
2022-10-22T07:01:27.901Z,95664.78
2022-10-22T07:02:29.803Z,95669.53
2022-10-22T07:03:32.666Z,95677.75
2022-10-22T07:04:34.460Z,95670.72
2022-10-22T07:05:37.259Z,95683.25
2022-10-22T07:06:39.087Z,95682.50
2022-10-22T07:07:41.958Z,95688.75
2022-10-22T07:08:44.229Z,95700.94
2022-10-22T07:09:50.569Z,95697.75
2022-10-22T07:10:53.291Z,95712.25
2022-10-22T07:11:56.063Z,95720.94
2022-10-22T07:12:58.542Z,95720.16
2022-10-22T07:14:02.718Z,95727.19
2022-10-22T07:15:05.334Z,95727.19
2022-10-22T07:16:09.371Z,95725.63
2022-10-22T07:17:11.207Z,95729.16
2022-10-22T07:18:13.990Z,95729.88
2022-10-22T07:19:15.816Z,95727.44
2022-10-22T07:20:18.866Z,95728.22
2022-10-22T07:21:21.930Z,95714.91
2022-10-22T07:22:24.701Z,95720.41
2022-10-22T07:23:27.109Z,95717.34
2022-10-22T07:24:29.976Z,95724.03
2022-10-22T07:25:31.762Z,95722.16
2022-10-22T07:26:34.603Z,95725.66
2022-10-22T07:27:36.585Z,95731.59
2022-10-22T07:28:40.963Z,95734.00
2022-10-22T07:29:45.197Z,95734.78
2022-10-22T07:30:47.447Z,95742.69
2022-10-22T07:31:50.788Z,95737.63
2022-10-22T07:32:52.726Z,95729.38
2022-10-22T07:33:55.706Z,95741.94
2022-10-22T07:34:57.552Z,95745.88
2022-10-22T07:36:01.480Z,95738.84
2022-10-22T07:37:03.463Z,95752.59
2022-10-22T07:38:06.850Z,95756.53
2022-10-22T07:39:09.745Z,95751.78
2022-10-22T07:40:12.098Z,95743.56
2022-10-22T07:41:15.530Z,95746.28
2022-10-22T07:42:17.418Z,95746.28
2022-10-22T07:43:20.277Z,95748.28
2022-10-22T07:44:23.104Z,95747.09
2022-10-22T07:45:26.305Z,95749.84
2022-10-22T07:46:29.145Z,95756.84
2022-10-22T07:47:31.074Z,95755.31
2022-10-22T07:48:33.945Z,95762.34
2022-10-22T07:49:36.718Z,95762.69
2022-10-22T07:50:38.704Z,95760.69
2022-10-22T07:51:41.569Z,95766.97
2022-10-22T07:52:43.868Z,95761.03
2022-10-22T07:53:46.930Z,95763.00
2022-10-22T07:54:48.939Z,95758.28
2022-10-22T07:55:52.552Z,95757.53
2022-10-22T07:56:55.351Z,95753.56
2022-10-22T07:57:57.201Z,95757.84
2022-10-22T08:00:08.280Z,95758.28
2022-10-22T08:01:18.664Z,95763.00
2022-10-22T08:02:20.572Z,95763.00
2022-10-22T08:03:23.401Z,95766.09
2022-10-22T08:04:26.228Z,95768.84
2022-10-22T08:05:28.072Z,95773.56
2022-10-22T08:06:31.041Z,95766.09
2022-10-22T08:07:32.973Z,95764.53
2022-10-22T08:08:36.051Z,95767.28
2022-10-22T08:09:37.909Z,95767.28
2022-10-22T08:10:41.122Z,95775.53
2022-10-22T08:11:43.113Z,95780.25
2022-10-22T08:12:46.169Z,95782.25
2022-10-22T08:13:48.047Z,95783.78
2022-10-22T08:14:50.985Z,95788.94
2022-10-22T08:15:56.508Z,95780.69
2022-10-22T08:17:01.926Z,95788.94
2022-10-22T08:18:04.055Z,95786.19
2022-10-22T08:19:07.006Z,95793.66
2022-10-22T08:20:09.740Z,95792.91
2022-10-22T08:21:14.534Z,95794.41
2022-10-22T08:22:16.451Z,95795.97
2022-10-22T08:23:25.954Z,95798.28
2022-10-22T08:24:30.489Z,95794.75
2022-10-22T08:25:32.949Z,95804.56
2022-10-22T08:26:36.052Z,95799.06
2022-10-22T08:27:38.672Z,95799.06
2022-10-22T08:28:41.807Z,95800.25
2022-10-22T08:29:43.627Z,95812.34
2022-10-22T08:30:48.223Z,95815.09
2022-10-22T08:31:50.963Z,95811.56
2022-10-22T08:32:55.133Z,95821.41
2022-10-22T08:33:58.405Z,95818.66
2022-10-22T08:35:00.307Z,95811.19
2022-10-22T08:36:03.385Z,95820.19
2022-10-22T08:37:08.413Z,95818.19
2022-10-22T08:38:12.001Z,95820.19
2022-10-22T08:39:13.903Z,95818.19
2022-10-22T08:40:24.217Z,95814.69
2022-10-22T08:41:27.264Z,95820.94
2022-10-22T08:43:01.760Z,95824.47
2022-10-22T08:44:40.104Z,95834.25
2022-10-22T08:45:47.580Z,95834.59
2022-10-22T08:47:07.543Z,95838.09
2022-10-22T08:48:25.012Z,95840.09
2022-10-22T08:49:31.021Z,95836.13
2022-10-22T08:50:36.004Z,95829.44
2022-10-22T08:51:40.384Z,95827.44
2022-10-22T08:52:49.754Z,95825.47
2022-10-22T08:54:08.816Z,95827.03
2022-10-22T08:55:14.666Z,95828.53
2022-10-22T08:56:17.673Z,95828.53
2022-10-22T08:57:34.211Z,95821.06
2022-10-22T08:58:41.350Z,95831.63
2022-10-22T08:59:48.001Z,95833.59
2022-10-22T09:00:59.211Z,95826.13
2022-10-22T09:02:02.530Z,95833.16
2022-10-22T09:03:26.995Z,95836.22
2022-10-22T09:04:34.927Z,95836.47
2022-10-22T09:05:47.117Z,95840.66
2022-10-22T09:06:53.489Z,95842.09
2022-10-22T09:07:57.219Z,95854.19
2022-10-22T09:09:02.246Z,95854.84
2022-10-22T09:10:04.925Z,95854.41
2022-10-22T09:11:23.797Z,95858.25
2022-10-22T09:12:28.416Z,95862.13
2022-10-22T09:13:31.456Z,95860.47
2022-10-22T09:14:33.467Z,95855.72
2022-10-22T09:15:36.288Z,95847.06
2022-10-22T09:16:43.942Z,95857.25
2022-10-22T09:17:57.817Z,95851.75
2022-10-22T09:19:13.091Z,95847.06
2022-10-22T09:20:26.242Z,95849.81
2022-10-22T09:21:38.552Z,95851.00
2022-10-22T09:22:50.905Z,95853.75
2022-10-22T09:24:03.430Z,95843.97
2022-10-22T09:25:18.586Z,95844.84
2022-10-22T09:26:21.473Z,95843.31
2022-10-22T09:27:28.727Z,95845.72
2022-10-22T09:28:31.684Z,95844.19
2022-10-22T09:29:34.116Z,95842.63
2022-10-22T09:30:38.627Z,95848.13
2022-10-22T09:31:40.458Z,95855.28
2022-10-22T09:32:43.629Z,95850.22
2022-10-22T09:33:52.061Z,95847.47
2022-10-22T09:34:59.192Z,95850.22
2022-10-22T09:36:03.653Z,95850.22
2022-10-22T09:37:09.231Z,95845.94
2022-10-22T09:38:14.548Z,95842.44
2022-10-22T09:39:25.312Z,95849.13
2022-10-22T09:40:27.123Z,95859.34
2022-10-22T09:41:31.057Z,95860.88
2022-10-22T09:42:34.837Z,95862.09
2022-10-22T09:43:38.000Z,95864.84
2022-10-22T09:44:41.144Z,95865.59
2022-10-22T09:45:47.732Z,95858.91
2022-10-22T09:46:51.110Z,95859.34
2022-10-22T09:48:10.217Z,95866.38
2022-10-22T09:49:16.187Z,95856.59
2022-10-22T09:50:27.432Z,95866.38
2022-10-22T09:51:52.119Z,95872.53
2022-10-22T09:53:04.873Z,95874.09
2022-10-22T09:54:16.935Z,95874.09
2022-10-22T09:55:19.376Z,95869.34
2022-10-22T09:56:26.841Z,95874.09
2022-10-22T09:57:29.815Z,95874.09
2022-10-22T09:58:43.556Z,95875.63
2022-10-22T09:59:48.805Z,95874.84
2022-10-22T10:00:54.637Z,95875.97
2022-10-22T10:02:08.355Z,95873.22
2022-10-22T10:03:24.899Z,95875.53
2022-10-22T10:04:26.965Z,95876.28
2022-10-22T10:05:33.260Z,95877.81
2022-10-22T10:06:36.063Z,95871.13
2022-10-22T10:07:39.351Z,95869.13
2022-10-22T10:08:41.501Z,95876.63
2022-10-22T10:09:44.580Z,95873.41
2022-10-22T10:10:48.863Z,95876.97
2022-10-22T10:11:58.113Z,95871.47
2022-10-22T10:13:15.277Z,95865.50
2022-10-22T10:14:26.872Z,95867.50
2022-10-22T10:15:36.558Z,95869.03
2022-10-22T10:16:48.215Z,95876.06
2022-10-22T10:17:58.773Z,95864.31
2022-10-22T10:19:15.417Z,95862.00
2022-10-22T10:20:27.561Z,95863.53
2022-10-22T10:21:44.885Z,95860.34
2022-10-22T10:22:56.094Z,95868.91
2022-10-22T10:24:08.987Z,95868.91
2022-10-22T10:25:34.600Z,95870.47
2022-10-22T10:26:43.885Z,95865.28
2022-10-22T10:27:52.405Z,95864.84
2022-10-22T10:29:11.959Z,95860.44
2022-10-22T10:30:18.141Z,95862.34
2022-10-22T10:31:33.890Z,95861.53
2022-10-22T10:32:56.473Z,95859.88
2022-10-22T10:34:10.005Z,95848.88
2022-10-22T10:35:22.313Z,95853.19
2022-10-22T10:36:31.829Z,95854.72
2022-10-22T10:37:43.797Z,95854.28
2022-10-22T10:38:58.578Z,95852.31
2022-10-22T10:40:19.670Z,95855.81
2022-10-22T10:41:32.313Z,95859.69
2022-10-22T10:42:40.447Z,95865.97
2022-10-22T10:43:55.305Z,95858.91
2022-10-22T10:45:08.513Z,95860.44
2022-10-22T10:46:18.505Z,95860.78
2022-10-22T10:47:42.487Z,95862.31
2022-10-22T10:48:51.238Z,95866.63
2022-10-22T10:49:58.060Z,95869.38
2022-10-22T10:51:14.632Z,95868.16
2022-10-22T10:52:26.697Z,95862.22
2022-10-22T10:53:45.955Z,95866.16
2022-10-22T10:55:01.437Z,95864.16
2022-10-22T10:56:15.354Z,95865.72
2022-10-22T10:57:30.046Z,95857.47
2022-10-22T10:58:42.119Z,95856.25
2022-10-22T11:00:02.230Z,95857.81
2022-10-22T11:01:21.012Z,95859.34
2022-10-22T11:03:05.800Z,95847.13
2022-10-22T11:04:25.756Z,95861.22
2022-10-22T11:05:39.849Z,95851.75
2022-10-22T11:06:44.838Z,95854.50
2022-10-22T11:07:53.472Z,95858.47
2022-10-22T11:09:06.630Z,95852.97
2022-10-22T11:10:21.224Z,95856.91
2022-10-22T11:11:31.002Z,95853.28
2022-10-22T11:12:39.186Z,95857.56
2022-10-22T11:13:47.013Z,95855.91
2022-10-22T11:14:58.840Z,95852.72
2022-10-22T11:16:05.817Z,95854.25
2022-10-22T11:17:15.227Z,95855.47
2022-10-22T11:18:24.816Z,95846.00
2022-10-22T11:19:50.121Z,95847.22
2022-10-22T11:21:04.535Z,95855.03
2022-10-22T11:22:13.497Z,95857.34
2022-10-22T11:23:21.667Z,95852.94
2022-10-22T11:24:29.471Z,95854.03
2022-10-22T11:25:39.514Z,95855.56
2022-10-22T11:26:46.763Z,95851.28
2022-10-22T11:27:53.545Z,95864.16
2022-10-22T11:29:02.523Z,95860.19
2022-10-22T11:30:11.630Z,95855.56
2022-10-22T11:31:16.831Z,95857.00
2022-10-22T11:32:20.828Z,95863.59
2022-10-22T11:33:27.987Z,95862.84
2022-10-22T11:34:37.066Z,95863.69
2022-10-22T11:35:40.987Z,95859.72
2022-10-22T11:36:44.613Z,95854.19
2022-10-22T11:37:48.079Z,95849.91
2022-10-22T11:38:52.104Z,95854.34
2022-10-22T11:39:59.757Z,95856.31
2022-10-22T11:41:06.668Z,95857.97
2022-10-22T11:42:11.405Z,95848.94
2022-10-22T11:43:28.743Z,95850.16
2022-10-22T11:44:32.950Z,95854.13
2022-10-22T11:45:37.433Z,95851.81
2022-10-22T11:46:46.113Z,95848.28
2022-10-22T11:47:57.101Z,95852.59
2022-10-22T11:49:06.437Z,95851.03
2022-10-22T11:50:21.608Z,95856.09
2022-10-22T11:51:33.289Z,95856.00
2022-10-22T11:52:42.328Z,95852.91
2022-10-22T11:53:44.574Z,95852.59
2022-10-22T11:54:47.309Z,95855.34
2022-10-22T11:55:52.545Z,95854.56
2022-10-22T11:57:13.113Z,95850.16
2022-10-22T11:58:31.824Z,95852.03
2022-10-22T11:59:39.740Z,95856.63
2022-10-22T12:00:48.965Z,95849.91
2022-10-22T12:01:56.363Z,95849.34
2022-10-22T12:03:03.297Z,95852.09
2022-10-22T12:04:24.319Z,95846.84
2022-10-22T12:05:45.544Z,95849.13
2022-10-22T12:07:04.324Z,95856.28
2022-10-22T12:08:23.883Z,95841.63
2022-10-22T12:09:30.303Z,95840.09
2022-10-22T12:10:37.173Z,95845.41
2022-10-22T12:11:47.622Z,95849.81
2022-10-22T12:12:57.300Z,95852.06
2022-10-22T12:14:15.164Z,95845.59
2022-10-22T12:15:24.592Z,95845.75
2022-10-22T12:16:37.771Z,95843.84
2022-10-22T12:17:46.812Z,95852.25
2022-10-22T12:18:49.715Z,95852.25
2022-10-22T12:20:02.017Z,95851.59
2022-10-22T12:21:05.162Z,95834.31
2022-10-22T12:22:16.001Z,95836.19
2022-10-22T12:23:18.025Z,95834.41
2022-10-22T12:24:23.582Z,95837.91
2022-10-22T12:25:35.493Z,95840.22
2022-10-22T12:26:38.848Z,95833.50
2022-10-22T12:27:42.312Z,95832.59
2022-10-22T12:28:45.373Z,95839.19
2022-10-22T12:29:47.863Z,95837.53
2022-10-22T12:30:50.668Z,95836.31
2022-10-22T12:31:52.955Z,95834.78
2022-10-22T12:32:58.533Z,95839.81
2022-10-22T12:34:00.601Z,95844.56
2022-10-22T12:35:06.921Z,95844.84
2022-10-22T12:36:15.893Z,95838.69
2022-10-22T12:37:19.840Z,95827.81
2022-10-22T12:38:23.832Z,95834.19
2022-10-22T12:39:28.041Z,95837.84
2022-10-22T12:40:33.509Z,95831.91
2022-10-22T12:41:38.411Z,95834.31
2022-10-22T12:42:50.193Z,95834.97
2022-10-22T12:44:00.127Z,95833.28
2022-10-22T12:45:02.445Z,95833.25
2022-10-22T12:46:05.329Z,95837.06
2022-10-22T12:47:08.486Z,95834.31
2022-10-22T12:48:18.597Z,95827.72
2022-10-22T12:49:25.957Z,95822.66
2022-10-22T12:50:33.152Z,95835.47
2022-10-22T12:51:36.156Z,95830.88
2022-10-22T12:52:38.612Z,95829.56
2022-10-22T12:53:46.595Z,95833.56
2022-10-22T12:54:52.454Z,95821.78
2022-10-22T12:55:58.861Z,95826.97
2022-10-22T12:57:01.493Z,95818.81
2022-10-22T12:58:08.110Z,95833.06